createdAt,value
2018-09-05T01:00:33.108Z,20.06
2018-09-05T01:01:33.059Z,20.06
2018-09-05T01:02:33.053Z,20.06
2018-09-05T01:03:33.076Z,20.03
2018-09-05T01:04:33.021Z,20.03
2018-09-05T01:05:33.010Z,20.05
2018-09-05T01:06:33.000Z,19.95
2018-09-05T01:07:32.990Z,19.92
2018-09-05T01:08:33.021Z,19.94
2018-09-05T01:09:32.968Z,19.86
2018-09-05T01:10:32.955Z,19.83
2018-09-05T01:11:32.941Z,19.86
2018-09-05T01:12:32.931Z,19.80
2018-09-05T01:13:32.970Z,19.83
2018-09-05T01:14:32.905Z,19.76
2018-09-05T01:15:32.899Z,19.66
2018-09-05T01:16:32.891Z,19.69
2018-09-05T01:17:32.875Z,19.66
2018-09-05T01:18:32.906Z,19.77
2018-09-05T01:19:32.895Z,19.71
2018-09-05T01:20:32.839Z,19.77
2018-09-05T01:21:32.829Z,19.78
2018-09-05T01:22:32.819Z,19.77
2018-09-05T01:23:32.805Z,19.77
2018-09-05T01:24:32.839Z,19.76
2018-09-05T01:25:32.792Z,19.76
2018-09-05T01:26:32.771Z,19.69
2018-09-05T01:27:32.765Z,19.80
2018-09-05T01:28:32.751Z,19.81
2018-09-05T01:29:32.783Z,19.81
2018-09-05T01:30:32.727Z,19.76
2018-09-05T01:31:32.718Z,19.77
2018-09-05T01:32:32.702Z,19.77
2018-09-05T01:33:32.695Z,19.74
2018-09-05T01:34:32.735Z,19.80
2018-09-05T01:35:32.673Z,19.77
2018-09-05T01:36:32.658Z,19.77
2018-09-05T01:37:32.646Z,19.80
2018-09-05T01:38:32.638Z,19.78
2018-09-05T01:39:32.670Z,19.78
2018-09-05T01:40:32.616Z,19.86
2018-09-05T01:41:32.604Z,19.76
2018-09-05T01:42:32.589Z,19.78
2018-09-05T01:43:32.583Z,19.77
2018-09-05T01:44:32.613Z,19.76
2018-09-05T01:45:32.558Z,19.77
2018-09-05T01:46:32.545Z,19.74
2018-09-05T01:47:32.533Z,19.76
2018-09-05T01:48:32.522Z,19.77
2018-09-05T01:49:32.559Z,19.71
2018-09-05T01:50:32.505Z,19.66
2018-09-05T01:51:32.489Z,19.66
2018-09-05T01:52:32.477Z,19.71
2018-09-05T01:53:32.467Z,19.59
2018-09-05T01:54:32.501Z,19.76
2018-09-05T01:55:32.445Z,19.66
2018-09-05T01:56:32.517Z,19.65
2018-09-05T01:57:32.424Z,19.68
2018-09-05T01:58:32.411Z,19.65
2018-09-05T01:59:32.443Z,19.66
2018-09-05T02:00:32.392Z,19.59
2018-09-05T02:01:32.378Z,19.74
2018-09-05T02:02:32.364Z,19.81
2018-09-05T02:03:32.358Z,19.71
2018-09-05T02:04:32.389Z,19.76
2018-09-05T02:05:32.337Z,19.59
2018-09-05T02:06:32.319Z,19.74
2018-09-05T02:07:32.309Z,19.69
2018-09-05T02:08:32.364Z,19.59
2018-09-05T02:09:32.330Z,19.73
2018-09-05T02:10:32.272Z,19.62
2018-09-05T02:11:32.262Z,19.76
2018-09-05T02:12:32.252Z,19.62
2018-09-05T02:13:32.248Z,19.59
2018-09-05T02:14:32.281Z,19.68
2018-09-05T02:15:32.216Z,19.61
2018-09-05T02:16:32.206Z,19.62
2018-09-05T02:17:32.196Z,19.73
2018-09-05T02:18:32.181Z,19.69
2018-09-05T02:19:32.216Z,19.62
2018-09-05T02:20:32.160Z,19.63
2018-09-05T02:21:32.148Z,19.61
2018-09-05T02:22:32.136Z,19.59
2018-09-05T02:23:32.128Z,19.59
2018-09-05T02:24:32.166Z,19.55
2018-09-05T02:25:32.105Z,19.55
2018-09-05T02:26:32.109Z,19.50
2018-09-05T02:27:32.079Z,19.50
2018-09-05T02:28:32.073Z,19.47
2018-09-05T02:29:32.104Z,19.48
2018-09-05T02:30:32.047Z,19.44
2018-09-05T02:31:32.040Z,19.41
2018-09-05T02:32:32.022Z,19.40
2018-09-05T02:33:32.015Z,19.36
2018-09-05T02:34:32.049Z,19.29
2018-09-05T02:35:31.990Z,19.36
2018-09-05T02:36:31.986Z,19.22
2018-09-05T02:37:31.967Z,19.21
2018-09-05T02:38:31.958Z,19.21
2018-09-05T02:39:31.997Z,19.22
2018-09-05T02:40:31.987Z,19.25
2018-09-05T02:41:31.929Z,19.19
2018-09-05T02:42:31.910Z,19.11
2018-09-05T02:43:31.900Z,19.13
2018-09-05T02:44:31.932Z,18.99
2018-09-05T02:45:31.878Z,18.98
2018-09-05T02:46:31.873Z,18.98
2018-09-05T02:47:31.853Z,19.04
2018-09-05T02:48:31.861Z,19.06
2018-09-05T02:49:31.878Z,18.98
2018-09-05T02:50:31.819Z,18.94
2018-09-05T02:51:31.809Z,18.98
2018-09-05T02:52:31.797Z,19.06
2018-09-05T02:53:31.787Z,19.02
2018-09-05T02:54:31.826Z,18.98
2018-09-05T02:55:31.768Z,19.06
2018-09-05T02:56:31.752Z,19.02
2018-09-05T02:57:31.772Z,18.95
2018-09-05T02:58:31.738Z,18.99
2018-09-05T02:59:31.776Z,18.98
2018-09-05T03:00:31.708Z,18.95
2018-09-05T03:01:31.696Z,18.85
2018-09-05T03:02:31.687Z,18.85
2018-09-05T03:03:31.676Z,18.76
2018-09-05T03:04:31.666Z,18.80
2018-09-05T03:05:31.697Z,18.80
2018-09-05T03:06:31.643Z,18.80
2018-09-05T03:07:31.628Z,18.73
2018-09-05T03:08:31.616Z,18.76
2018-09-05T03:09:31.697Z,18.75
2018-09-05T03:10:31.640Z,18.78
2018-09-05T03:11:31.581Z,18.75
2018-09-05T03:12:31.572Z,18.73
2018-09-05T03:13:31.568Z,18.76
2018-09-05T03:14:31.549Z,18.81
2018-09-05T03:15:31.585Z,18.69
2018-09-05T03:16:31.526Z,18.69
2018-09-05T03:17:31.513Z,18.70
2018-09-05T03:18:31.504Z,18.65
2018-09-05T03:19:31.494Z,18.62
2018-09-05T03:20:31.528Z,18.62
2018-09-05T03:21:31.469Z,18.58
2018-09-05T03:22:31.457Z,18.62
2018-09-05T03:23:31.505Z,18.62
2018-09-05T03:24:31.435Z,18.55
2018-09-05T03:25:31.476Z,18.51
2018-09-05T03:26:31.419Z,18.52
2018-09-05T03:27:31.403Z,18.52
2018-09-05T03:28:31.391Z,18.63
2018-09-05T03:29:31.378Z,18.51
2018-09-05T03:30:31.416Z,18.57
2018-09-05T03:31:31.359Z,18.63
2018-09-05T03:32:31.507Z,18.62
2018-09-05T03:33:31.335Z,18.67
2018-09-05T03:34:31.325Z,18.66
2018-09-05T03:35:31.356Z,18.63
2018-09-05T03:36:31.301Z,18.63
2018-09-05T03:37:31.288Z,18.67
2018-09-05T03:38:31.277Z,18.65
2018-09-05T03:39:31.267Z,18.67
2018-09-05T03:40:31.302Z,18.65
2018-09-05T03:41:31.243Z,18.58
2018-09-05T03:42:31.232Z,18.65
2018-09-05T03:43:31.223Z,18.63
2018-09-05T03:44:31.211Z,18.63
2018-09-05T03:45:31.242Z,18.63
2018-09-05T03:46:31.187Z,18.57
2018-09-05T03:47:31.180Z,18.63
2018-09-05T03:48:31.164Z,18.58
2018-09-05T03:49:31.153Z,18.58
2018-09-05T03:50:31.188Z,18.50
2018-09-05T03:51:31.132Z,18.55
2018-09-05T03:52:31.123Z,18.52
2018-09-05T03:53:31.111Z,18.55
2018-09-05T03:54:31.097Z,18.52
2018-09-05T03:55:31.131Z,18.51
2018-09-05T03:56:31.084Z,18.51
2018-09-05T03:57:31.063Z,18.55
2018-09-05T03:58:31.051Z,18.52
2018-09-05T03:59:31.043Z,18.51
2018-09-05T04:00:31.074Z,18.45
2018-09-05T04:01:31.020Z,18.47
2018-09-05T04:02:31.019Z,18.45
2018-09-05T04:03:30.994Z,18.45
2018-09-05T04:04:30.984Z,18.32
2018-09-05T04:05:31.032Z,18.33
2018-09-05T04:06:30.967Z,18.39
2018-09-05T04:07:30.951Z,18.27
2018-09-05T04:08:30.942Z,18.29
2018-09-05T04:09:30.929Z,18.32
2018-09-05T04:10:30.995Z,18.36
2018-09-05T04:11:30.972Z,18.18
2018-09-05T04:12:30.933Z,18.21
2018-09-05T04:13:30.887Z,18.23
2018-09-05T04:14:30.869Z,18.14
2018-09-05T04:15:30.907Z,18.11
2018-09-05T04:16:30.850Z,18.33
2018-09-05T04:17:30.849Z,18.29
2018-09-05T04:18:30.829Z,18.30
2018-09-05T04:19:30.815Z,18.30
2018-09-05T04:20:30.857Z,18.33
2018-09-05T04:21:30.810Z,18.37
2018-09-05T04:22:30.804Z,18.39
2018-09-05T04:23:30.772Z,18.37
2018-09-05T04:24:30.763Z,18.33
2018-09-05T04:25:30.792Z,18.42
2018-09-05T04:26:30.737Z,18.41
2018-09-05T04:27:30.724Z,18.42
2018-09-05T04:28:30.712Z,18.42
2018-09-05T04:29:30.762Z,18.37
2018-09-05T04:30:30.735Z,18.37
2018-09-05T04:31:30.699Z,18.36
2018-09-05T04:32:30.677Z,18.32
2018-09-05T04:33:30.675Z,18.26
2018-09-05T04:34:30.646Z,18.30
2018-09-05T04:35:30.683Z,18.27
2018-09-05T04:36:30.624Z,18.11
2018-09-05T04:37:30.615Z,18.20
2018-09-05T04:38:30.597Z,18.15
2018-09-05T04:39:30.588Z,18.15
2018-09-05T04:40:30.623Z,18.11
2018-09-05T04:41:30.568Z,18.18
2018-09-05T04:42:30.555Z,18.23
2018-09-05T04:43:30.541Z,18.23
2018-09-05T04:44:30.551Z,18.17
2018-09-05T04:45:30.565Z,18.30
2018-09-05T04:46:30.511Z,18.32
2018-09-05T04:47:30.497Z,18.29
2018-09-05T04:48:30.483Z,18.44
2018-09-05T04:49:30.472Z,18.37
2018-09-05T04:50:30.462Z,18.45
2018-09-05T04:51:30.496Z,18.41
2018-09-05T04:52:30.514Z,18.45
2018-09-05T04:53:30.429Z,18.48
2018-09-05T04:54:30.412Z,18.48
2018-09-05T04:55:30.405Z,18.42
2018-09-05T04:56:30.434Z,18.42
2018-09-05T04:57:30.378Z,18.36
2018-09-05T04:58:30.462Z,18.50
2018-09-05T04:59:30.358Z,18.50
2018-09-05T05:00:30.346Z,18.39
2018-09-05T05:01:30.379Z,18.45
2018-09-05T05:02:30.338Z,18.37
2018-09-05T05:03:30.316Z,18.48
2018-09-05T05:04:30.305Z,18.42
2018-09-05T05:05:30.327Z,18.44
2018-09-05T05:06:30.332Z,18.45
2018-09-05T05:07:30.265Z,18.47
2018-09-05T05:08:30.257Z,18.44
2018-09-05T05:09:30.244Z,18.44
2018-09-05T05:10:30.231Z,18.44
2018-09-05T05:11:30.269Z,18.39
2018-09-05T05:12:30.267Z,18.51
2018-09-05T05:13:30.196Z,18.39
2018-09-05T05:14:30.190Z,18.42
2018-09-05T05:15:30.178Z,18.39
2018-09-05T05:16:30.209Z,18.41
2018-09-05T05:17:30.151Z,18.44
2018-09-05T05:18:30.138Z,18.41
2018-09-05T05:19:30.180Z,18.48
2018-09-05T05:20:30.121Z,18.50
2018-09-05T05:21:30.151Z,18.48
2018-09-05T05:22:30.106Z,18.42
2018-09-05T05:23:30.125Z,18.45
2018-09-05T05:24:30.071Z,18.42
2018-09-05T05:25:30.062Z,18.42
2018-09-05T05:26:30.163Z,18.39
2018-09-05T05:27:30.037Z,18.45
2018-09-05T05:28:30.026Z,18.42
2018-09-05T05:29:30.019Z,18.48
2018-09-05T05:30:30.003Z,18.52
2018-09-05T05:31:30.034Z,18.48
2018-09-05T05:32:30.037Z,18.54
2018-09-05T05:33:29.968Z,18.58
2018-09-05T05:34:29.954Z,18.51
2018-09-05T05:35:29.945Z,18.60
2018-09-05T05:36:29.978Z,18.51
2018-09-05T05:37:29.923Z,18.54
2018-09-05T05:38:29.920Z,18.55
2018-09-05T05:39:29.901Z,18.55
2018-09-05T05:40:29.888Z,18.39
2018-09-05T05:41:29.921Z,18.47
2018-09-05T05:42:29.865Z,18.54
2018-09-05T05:43:29.855Z,18.58
2018-09-05T05:44:29.841Z,18.73
2018-09-05T05:45:29.831Z,18.76
2018-09-05T05:46:29.866Z,18.92
2018-09-05T05:47:29.822Z,18.88
2018-09-05T05:48:29.802Z,18.92
2018-09-05T05:49:29.789Z,18.92
2018-09-05T05:50:29.771Z,19.08
2018-09-05T05:51:29.811Z,19.02
2018-09-05T05:52:29.752Z,18.95
2018-09-05T05:53:29.740Z,18.88
2018-09-05T05:54:29.736Z,19.00
2018-09-05T05:55:29.717Z,18.88
2018-09-05T05:56:29.752Z,18.94
2018-09-05T05:57:29.700Z,18.92
2018-09-05T05:58:29.684Z,18.92
2018-09-05T05:59:29.670Z,18.99
2018-09-05T06:00:29.660Z,18.94
2018-09-05T06:01:29.702Z,19.07
2018-09-05T06:02:30.218Z,19.00
2018-09-05T06:03:29.626Z,19.07
2018-09-05T06:04:29.617Z,19.08
2018-09-05T06:05:29.607Z,19.10
2018-09-05T06:06:29.785Z,19.13
2018-09-05T06:07:29.582Z,19.13
2018-09-05T06:08:29.584Z,19.19
2018-09-05T06:09:29.565Z,19.13
2018-09-05T06:10:29.568Z,19.18
2018-09-05T06:11:29.581Z,19.22
2018-09-05T06:12:29.529Z,19.19
2018-09-05T06:13:29.516Z,19.22
2018-09-05T06:14:29.511Z,19.21
2018-09-05T06:15:29.518Z,19.33
2018-09-05T06:16:29.528Z,19.21
2018-09-05T06:17:29.483Z,19.32
2018-09-05T06:18:29.458Z,19.37
2018-09-05T06:19:29.447Z,19.39
2018-09-05T06:20:29.438Z,19.41
2018-09-05T06:21:29.493Z,19.41
2018-09-05T06:22:29.415Z,19.46
2018-09-05T06:23:29.403Z,19.54
2018-09-05T06:24:29.460Z,19.66
2018-09-05T06:25:29.382Z,19.65
2018-09-05T06:26:29.420Z,19.68
2018-09-05T06:27:29.356Z,19.62
2018-09-05T06:28:29.352Z,19.55
2018-09-05T06:29:29.339Z,19.69
2018-09-05T06:30:29.369Z,19.65
2018-09-05T06:31:29.368Z,19.63
2018-09-05T06:32:29.301Z,19.55
2018-09-05T06:33:29.291Z,19.59
2018-09-05T06:34:29.277Z,19.63
2018-09-05T06:35:29.269Z,19.59
2018-09-05T06:36:29.302Z,19.66
2018-09-05T06:37:29.245Z,19.68
2018-09-05T06:38:29.240Z,19.74
2018-09-05T06:39:29.223Z,19.71
2018-09-05T06:40:29.208Z,19.76
2018-09-05T06:41:29.252Z,19.77
2018-09-05T06:42:29.190Z,19.84
2018-09-05T06:43:29.176Z,19.95
2018-09-05T06:44:29.165Z,19.95
2018-09-05T06:45:29.166Z,19.99
2018-09-05T06:46:29.241Z,20.08
2018-09-05T06:47:29.140Z,20.24
2018-09-05T06:48:29.120Z,20.42
2018-09-05T06:49:29.110Z,20.84
2018-09-05T06:50:29.097Z,21.22
2018-09-05T06:51:29.248Z,21.53
2018-09-05T06:52:29.077Z,21.94
2018-09-05T06:53:29.062Z,22.12
2018-09-05T06:54:29.049Z,22.28
2018-09-05T06:55:29.041Z,22.45
2018-09-05T06:56:29.079Z,22.51
2018-09-05T06:57:29.016Z,22.51
2018-09-05T06:58:29.014Z,22.55
2018-09-05T06:59:28.995Z,22.73
2018-09-05T07:00:28.984Z,22.75
2018-09-05T07:01:29.018Z,22.72
2018-09-05T07:02:28.966Z,22.82
2018-09-05T07:03:28.990Z,22.75
2018-09-05T07:04:28.953Z,22.73
2018-09-05T07:05:28.930Z,22.72
2018-09-05T07:06:29.259Z,22.62
2018-09-05T07:07:28.904Z,22.43
2018-09-05T07:08:28.895Z,22.39
2018-09-05T07:09:28.888Z,22.60
2018-09-05T07:10:28.871Z,22.72
2018-09-05T07:11:28.952Z,22.64
2018-09-05T07:12:28.852Z,22.43
2018-09-05T07:13:28.836Z,22.35
2018-09-05T07:14:28.888Z,22.15
2018-09-05T07:15:28.814Z,22.17
2018-09-05T07:16:28.806Z,21.99
2018-09-05T07:17:28.884Z,21.96
2018-09-05T07:18:29.702Z,21.82
2018-09-05T07:19:28.769Z,21.91
2018-09-05T07:20:28.786Z,21.83
2018-09-05T07:21:28.927Z,21.82
2018-09-05T07:22:28.789Z,21.75
2018-09-05T07:23:28.731Z,21.75
2018-09-05T07:24:28.712Z,21.72
2018-09-05T07:25:28.706Z,21.82
2018-09-05T07:26:28.686Z,21.84
2018-09-05T07:27:28.786Z,21.72
2018-09-05T07:28:28.664Z,21.75
2018-09-05T07:29:28.651Z,21.74
2018-09-05T07:30:28.748Z,21.72
2018-09-05T07:31:28.636Z,21.64
2018-09-05T07:32:28.664Z,21.65
2018-09-05T07:33:28.628Z,21.68
2018-09-05T07:34:28.595Z,21.65
2018-09-05T07:35:28.627Z,21.68
2018-09-05T07:36:28.573Z,21.65
2018-09-05T07:37:28.610Z,21.56
2018-09-05T07:38:28.553Z,21.53
2018-09-05T07:39:28.539Z,21.50
2018-09-05T07:40:28.525Z,21.62
2018-09-05T07:41:28.518Z,21.67
2018-09-05T07:42:28.546Z,21.67
2018-09-05T07:43:28.492Z,21.64
2018-09-05T07:44:28.484Z,21.56
2018-09-05T07:45:28.469Z,21.62
2018-09-05T07:46:28.458Z,21.50
2018-09-05T07:47:28.499Z,21.61
2018-09-05T07:48:28.433Z,21.65
2018-09-05T07:49:28.422Z,21.59
2018-09-05T07:50:28.437Z,21.75
2018-09-05T07:51:28.403Z,21.77
2018-09-05T07:52:28.434Z,21.80
2018-09-05T07:53:28.379Z,21.64
2018-09-05T07:54:28.365Z,21.65
2018-09-05T07:55:28.354Z,21.72
2018-09-05T07:56:28.344Z,21.75
2018-09-05T07:57:28.378Z,21.96
2018-09-05T07:58:28.326Z,21.92
2018-09-05T07:59:28.306Z,22.02
2018-09-05T08:00:28.295Z,22.18
2018-09-05T08:01:28.296Z,22.47
2018-09-05T08:02:28.320Z,22.62
2018-09-05T08:03:28.298Z,22.76
2018-09-05T08:04:28.250Z,22.90
2018-09-05T08:05:28.238Z,23.02
2018-09-05T08:06:28.230Z,23.05
2018-09-05T08:07:28.288Z,23.13
2018-09-05T08:08:28.218Z,23.05
2018-09-05T08:09:28.219Z,22.98
2018-09-05T08:10:28.182Z,22.92
2018-09-05T08:11:28.174Z,22.82
2018-09-05T08:12:28.206Z,22.79
2018-09-05T08:13:28.150Z,22.92
2018-09-05T08:14:28.137Z,22.88
2018-09-05T08:15:28.137Z,22.91
2018-09-05T08:16:28.119Z,22.76
2018-09-05T08:17:28.152Z,22.82
2018-09-05T08:18:28.101Z,22.75
2018-09-05T08:19:28.094Z,22.79
2018-09-05T08:20:28.071Z,22.88
2018-09-05T08:21:28.066Z,22.91
2018-09-05T08:22:28.092Z,22.75
2018-09-05T08:23:28.042Z,22.75
2018-09-05T08:24:28.089Z,22.76
2018-09-05T08:25:28.015Z,22.82
2018-09-05T08:26:28.004Z,22.79
2018-09-05T08:27:28.039Z,22.80
2018-09-05T08:28:28.008Z,22.95
2018-09-05T08:29:27.971Z,23.01
2018-09-05T08:30:27.959Z,23.27
2018-09-05T08:31:27.962Z,23.31
2018-09-05T08:32:27.983Z,23.36
2018-09-05T08:33:27.924Z,23.33
2018-09-05T08:34:27.912Z,23.25
2018-09-05T08:35:28.136Z,23.23
2018-09-05T08:36:28.297Z,23.13
2018-09-05T08:37:28.158Z,23.15
2018-09-05T08:38:28.018Z,23.05
2018-09-05T08:39:27.860Z,23.16
2018-09-05T08:40:27.846Z,23.16
2018-09-05T08:41:27.914Z,23.15
2018-09-05T08:42:27.940Z,23.19
2018-09-05T08:43:27.843Z,23.19
2018-09-05T08:44:27.875Z,23.28
2018-09-05T08:45:28.392Z,23.33
2018-09-05T08:46:27.790Z,23.39
2018-09-05T08:47:27.915Z,23.33
2018-09-05T08:48:27.899Z,23.40
2018-09-05T08:49:27.763Z,23.50
2018-09-05T08:50:27.736Z,23.55
2018-09-05T08:51:27.722Z,23.61
2018-09-05T08:52:27.882Z,23.54
2018-09-05T08:53:27.707Z,23.60
2018-09-05T08:54:27.694Z,23.55
2018-09-05T08:55:27.736Z,23.61
2018-09-05T08:56:27.676Z,23.61
2018-09-05T08:57:27.771Z,23.69
2018-09-05T08:58:27.645Z,23.68
2018-09-05T08:59:27.636Z,23.73
2018-09-05T09:00:27.628Z,23.78
2018-09-05T09:01:27.614Z,23.73
2018-09-05T09:02:27.648Z,23.78
2018-09-05T09:03:27.647Z,23.80
2018-09-05T09:04:27.619Z,23.91
2018-09-05T09:05:27.567Z,23.93
2018-09-05T09:06:27.556Z,23.93
2018-09-05T09:07:27.593Z,23.90
2018-09-05T09:08:27.537Z,23.93
2018-09-05T09:09:27.525Z,23.94
2018-09-05T09:10:27.511Z,23.93
2018-09-05T09:11:27.506Z,23.90
2018-09-05T09:12:27.533Z,23.88
2018-09-05T09:13:27.486Z,23.97
2018-09-05T09:14:27.493Z,23.95
2018-09-05T09:15:27.460Z,24.00
2018-09-05T09:16:27.447Z,24.02
2018-09-05T09:17:27.478Z,24.03
2018-09-05T09:18:27.424Z,24.15
2018-09-05T09:19:27.410Z,24.21
2018-09-05T09:20:27.398Z,24.15
2018-09-05T09:21:27.390Z,24.24
2018-09-05T09:22:27.421Z,24.28
2018-09-05T09:23:27.367Z,24.30
2018-09-05T09:24:27.376Z,24.31
2018-09-05T09:25:27.342Z,24.42
2018-09-05T09:26:27.334Z,24.43
2018-09-05T09:27:27.367Z,24.47
2018-09-05T09:28:27.322Z,24.78
2018-09-05T09:29:27.302Z,25.32
2018-09-05T09:30:27.302Z,25.73
2018-09-05T09:31:27.276Z,25.98
2018-09-05T09:32:27.324Z,26.02
2018-09-05T09:33:27.263Z,26.09
2018-09-05T09:34:27.248Z,25.77
2018-09-05T09:35:27.315Z,25.64
2018-09-05T09:36:27.223Z,25.36
2018-09-05T09:37:27.210Z,25.45
2018-09-05T09:38:27.252Z,25.38
2018-09-05T09:39:27.190Z,25.42
2018-09-05T09:40:27.176Z,25.33
2018-09-05T09:41:27.169Z,25.25
2018-09-05T09:42:27.158Z,25.32
2018-09-05T09:43:27.193Z,25.38
2018-09-05T09:44:27.135Z,25.36
2018-09-05T09:45:27.119Z,25.36
2018-09-05T09:46:27.115Z,25.33
2018-09-05T09:47:27.106Z,25.17
2018-09-05T09:48:27.132Z,25.09
2018-09-05T09:49:27.077Z,25.14
2018-09-05T09:50:27.072Z,25.13
2018-09-05T09:51:27.051Z,25.25
2018-09-05T09:52:27.055Z,25.40
2018-09-05T09:53:27.077Z,25.73
2018-09-05T09:54:27.017Z,25.67
2018-09-05T09:55:27.014Z,25.62
2018-09-05T09:56:27.006Z,25.65
2018-09-05T09:57:26.984Z,25.64
2018-09-05T09:58:27.027Z,25.64
2018-09-05T09:59:27.000Z,25.61
2018-09-05T10:00:26.953Z,25.62
2018-09-05T10:01:26.940Z,25.67
2018-09-05T10:02:26.928Z,25.75
2018-09-05T10:03:27.083Z,25.72
2018-09-05T10:04:26.907Z,25.72
2018-09-05T10:05:26.893Z,25.72
2018-09-05T10:06:26.888Z,25.77
2018-09-05T10:07:26.872Z,25.79
2018-09-05T10:08:26.906Z,25.87
2018-09-05T10:09:26.851Z,25.87
2018-09-05T10:10:26.843Z,25.82
2018-09-05T10:11:26.829Z,25.77
2018-09-05T10:12:26.814Z,25.79
2018-09-05T10:13:26.849Z,25.73
2018-09-05T10:14:26.800Z,25.69
2018-09-05T10:15:26.785Z,25.52
2018-09-05T10:16:26.771Z,25.57
2018-09-05T10:17:26.778Z,25.54
2018-09-05T10:18:26.799Z,25.39
2018-09-05T10:19:26.741Z,25.51
2018-09-05T10:20:26.727Z,25.52
2018-09-05T10:21:26.731Z,25.64
2018-09-05T10:22:26.825Z,25.72
2018-09-05T10:23:27.592Z,25.72
2018-09-05T10:24:27.357Z,25.87
2018-09-05T10:25:26.670Z,25.97
2018-09-05T10:26:26.663Z,25.99
2018-09-05T10:27:26.870Z,26.06
2018-09-05T10:28:26.881Z,26.10
2018-09-05T10:29:27.450Z,26.21
2018-09-05T10:30:26.722Z,26.18
2018-09-05T10:31:26.602Z,26.20
2018-09-05T10:32:26.703Z,26.26
2018-09-05T10:33:26.695Z,26.30
2018-09-05T10:34:26.568Z,26.30
2018-09-05T10:35:26.560Z,26.33
2018-09-05T10:36:26.549Z,26.35
2018-09-05T10:37:26.567Z,26.44
2018-09-05T10:38:26.644Z,26.43
2018-09-05T10:39:26.525Z,26.65
2018-09-05T10:40:26.500Z,26.66
2018-09-05T10:41:29.542Z,26.69
2018-09-05T10:42:26.475Z,26.84
2018-09-05T10:43:26.509Z,26.92
2018-09-05T10:44:26.610Z,26.87
2018-09-05T10:45:26.445Z,27.00
2018-09-05T10:46:26.436Z,27.03
2018-09-05T10:47:26.439Z,26.97
2018-09-05T10:48:26.468Z,27.13
2018-09-05T10:49:26.422Z,27.27
2018-09-05T10:50:26.389Z,27.49
2018-09-05T10:51:26.434Z,27.59
2018-09-05T10:52:26.369Z,27.46
2018-09-05T10:53:26.355Z,27.43
2018-09-05T10:54:26.392Z,27.34
2018-09-05T10:55:26.344Z,27.27
2018-09-05T10:56:26.322Z,27.25
2018-09-05T10:57:26.346Z,27.19
2018-09-05T10:58:26.320Z,27.18
2018-09-05T10:59:26.335Z,27.34
2018-09-05T11:00:26.280Z,27.19
2018-09-05T11:01:26.267Z,27.09
2018-09-05T11:02:26.254Z,27.09
2018-09-05T11:03:26.248Z,27.10
2018-09-05T11:04:26.286Z,27.12
2018-09-05T11:05:26.220Z,27.04
2018-09-05T11:06:26.221Z,27.04
2018-09-05T11:07:26.198Z,27.10
2018-09-05T11:08:26.187Z,27.13
2018-09-05T11:09:26.227Z,27.13
2018-09-05T11:10:26.172Z,27.12
2018-09-05T11:11:26.155Z,27.12
2018-09-05T11:12:26.160Z,27.19
2018-09-05T11:13:26.136Z,27.25
2018-09-05T11:14:26.180Z,27.29
2018-09-05T11:15:26.110Z,27.32
2018-09-05T11:16:26.098Z,27.22
2018-09-05T11:17:26.089Z,27.19
2018-09-05T11:18:26.081Z,27.27
2018-09-05T11:19:26.120Z,27.31
2018-09-05T11:20:26.056Z,27.43
2018-09-05T11:21:26.045Z,27.40
2018-09-05T11:22:26.033Z,27.49
2018-09-05T11:23:26.042Z,27.27
2018-09-05T11:24:26.070Z,27.27
2018-09-05T11:25:26.004Z,27.32
2018-09-05T11:26:25.988Z,27.34
2018-09-05T11:27:25.979Z,27.46
2018-09-05T11:28:25.976Z,27.49
2018-09-05T11:29:25.999Z,27.47
2018-09-05T11:30:25.945Z,27.49
2018-09-05T11:31:25.945Z,27.46
2018-09-05T11:32:25.922Z,27.46
2018-09-05T11:33:25.912Z,27.49
2018-09-05T11:34:25.908Z,27.44
2018-09-05T11:35:25.937Z,27.47
2018-09-05T11:36:25.877Z,27.43
2018-09-05T11:37:25.871Z,27.46
2018-09-05T11:38:25.855Z,27.47
2018-09-05T11:39:25.855Z,27.55
2018-09-05T11:40:25.906Z,27.50
2018-09-05T11:41:25.837Z,27.43
2018-09-05T11:42:25.811Z,27.57
2018-09-05T11:43:25.813Z,27.47
2018-09-05T11:44:25.799Z,27.57
2018-09-05T11:45:25.826Z,27.60
2018-09-05T11:46:25.771Z,27.74
2018-09-05T11:47:25.768Z,27.46
2018-09-05T11:48:25.745Z,27.41
2018-09-05T11:49:25.742Z,27.31
2018-09-05T11:50:25.771Z,27.25
2018-09-05T11:51:25.711Z,27.32
2018-09-05T11:52:25.713Z,27.36
2018-09-05T11:53:25.690Z,27.28
2018-09-05T11:54:25.684Z,27.36
2018-09-05T11:55:25.725Z,27.32
2018-09-05T11:56:25.659Z,27.34
2018-09-05T11:57:25.674Z,27.31
2018-09-05T11:58:25.639Z,27.31
2018-09-05T11:59:25.625Z,27.49
2018-09-05T12:00:25.696Z,27.60
2018-09-05T12:01:25.605Z,27.62
2018-09-05T12:02:25.593Z,27.75
2018-09-05T12:03:25.584Z,27.74
2018-09-05T12:04:25.569Z,27.85
2018-09-05T12:05:25.602Z,27.85
2018-09-05T12:06:25.549Z,27.77
2018-09-05T12:07:25.536Z,27.72
2018-09-05T12:08:25.528Z,27.75
2018-09-05T12:09:25.526Z,27.87
2018-09-05T12:10:25.551Z,27.94
2018-09-05T12:11:25.494Z,27.79
2018-09-05T12:12:25.483Z,27.78
2018-09-05T12:13:25.469Z,27.69
2018-09-05T12:14:25.459Z,27.72
2018-09-05T12:15:25.563Z,27.78
2018-09-05T12:16:25.438Z,27.77
2018-09-05T12:17:25.428Z,27.72
2018-09-05T12:18:25.423Z,28.21
2018-09-05T12:19:25.454Z,28.22
2018-09-05T12:20:25.450Z,28.00
2018-09-05T12:21:25.382Z,27.72
2018-09-05T12:22:25.440Z,27.67
2018-09-05T12:23:25.368Z,27.78
2018-09-05T12:24:25.351Z,27.70
2018-09-05T12:25:25.373Z,27.72
2018-09-05T12:26:25.387Z,27.69
2018-09-05T12:27:25.317Z,27.69
2018-09-05T12:28:25.342Z,27.82
2018-09-05T12:29:25.330Z,27.75
2018-09-05T12:30:25.284Z,27.79
2018-09-05T12:31:25.324Z,27.69
2018-09-05T12:32:25.261Z,28.25
2018-09-05T12:33:25.252Z,29.06
2018-09-05T12:34:25.242Z,29.76
2018-09-05T12:35:25.234Z,30.34
2018-09-05T12:36:25.274Z,30.76
2018-09-05T12:37:25.212Z,31.17
2018-09-05T12:38:25.331Z,31.56
2018-09-05T12:39:25.182Z,31.96
2018-09-05T12:40:25.209Z,32.33
2018-09-05T12:41:25.213Z,32.59
2018-09-05T12:42:25.150Z,32.82
2018-09-05T12:43:25.188Z,32.82
2018-09-05T12:44:25.134Z,32.32
2018-09-05T12:45:25.118Z,31.65
2018-09-05T12:46:25.158Z,31.81
2018-09-05T12:47:25.095Z,32.28
2018-09-05T12:48:25.085Z,32.41
2018-09-05T12:49:25.075Z,32.66
2018-09-05T12:50:25.067Z,32.75
2018-09-05T12:51:25.099Z,32.97
2018-09-05T12:52:25.050Z,32.96
2018-09-05T12:53:25.031Z,33.15
2018-09-05T12:54:25.021Z,33.19
2018-09-05T12:55:25.023Z,33.47
2018-09-05T12:56:25.049Z,33.60
2018-09-05T12:57:24.990Z,33.71
2018-09-05T12:58:24.982Z,33.06
2018-09-05T12:59:25.008Z,32.79
2018-09-05T13:00:24.960Z,32.38
2018-09-05T13:01:24.992Z,32.07
2018-09-05T13:02:24.956Z,31.65
2018-09-05T13:03:24.924Z,31.50
2018-09-05T13:04:25.038Z,31.25
2018-09-05T13:05:24.928Z,31.07
2018-09-05T13:06:24.966Z,30.79
2018-09-05T13:07:24.887Z,30.54
2018-09-05T13:08:24.886Z,30.02
2018-09-05T13:09:24.866Z,29.64
2018-09-05T13:10:24.864Z,29.53
2018-09-05T13:11:24.909Z,29.41
2018-09-05T13:12:24.825Z,29.26
2018-09-05T13:13:24.848Z,28.95
2018-09-05T13:14:24.809Z,28.70
2018-09-05T13:15:24.793Z,28.61
2018-09-05T13:16:24.846Z,28.56
2018-09-05T13:17:24.771Z,28.52
2018-09-05T13:18:24.765Z,28.48
2018-09-05T13:19:24.760Z,28.41
2018-09-05T13:20:24.772Z,28.44
2018-09-05T13:21:24.781Z,28.41
2018-09-05T13:22:24.718Z,28.39
2018-09-05T13:23:24.706Z,28.37
2018-09-05T13:24:24.697Z,28.40
2018-09-05T13:25:24.684Z,28.41
2018-09-05T13:26:24.719Z,28.46
2018-09-05T13:27:24.660Z,28.36
2018-09-05T13:28:24.649Z,28.44
2018-09-05T13:29:24.644Z,28.33
2018-09-05T13:30:24.629Z,28.24
2018-09-05T13:31:24.666Z,28.29
2018-09-05T13:32:24.607Z,28.30
2018-09-05T13:33:24.610Z,28.27
2018-09-05T13:34:24.589Z,28.27
2018-09-05T13:35:24.593Z,28.31
2018-09-05T13:36:24.614Z,28.29
2018-09-05T13:37:24.560Z,28.25
2018-09-05T13:38:24.541Z,28.15
2018-09-05T13:39:24.531Z,28.19
2018-09-05T13:40:24.522Z,28.15
2018-09-05T13:41:24.564Z,28.17
2018-09-05T13:42:24.499Z,28.11
2018-09-05T13:43:24.489Z,28.25
2018-09-05T13:44:24.476Z,28.37
2018-09-05T13:45:24.469Z,28.34
2018-09-05T13:46:24.511Z,28.44
2018-09-05T13:47:24.445Z,28.37
2018-09-05T13:48:24.431Z,28.52
2018-09-05T13:49:24.422Z,28.56
2018-09-05T13:50:24.409Z,28.64
2018-09-05T13:51:24.441Z,28.56
2018-09-05T13:52:24.388Z,28.59